createdAt,value
2022-12-18T00:03:27.231Z,101222.97
2022-12-18T00:08:29.754Z,101204.19
2022-12-18T00:13:32.256Z,101205.47
2022-12-18T00:18:34.617Z,101217.53
2022-12-18T00:23:38.257Z,101223.88
2022-12-18T00:28:41.118Z,101209.16
2022-12-18T00:33:43.730Z,101228.59
2022-12-18T00:38:46.609Z,101246.59
2022-12-18T00:43:48.850Z,101244.44
2022-12-18T00:48:51.152Z,101230.88
2022-12-18T00:53:53.793Z,101233.91
2022-12-18T00:58:56.137Z,101225.06
2022-12-18T01:03:58.980Z,101240.47
2022-12-18T01:09:01.545Z,101249.03
2022-12-18T01:14:03.933Z,101230.63
2022-12-18T01:19:06.222Z,101203.66
2022-12-18T01:24:08.943Z,101245.91
2022-12-18T01:29:11.145Z,101225.47
2022-12-18T01:34:13.359Z,101271.13
2022-12-18T01:39:16.420Z,101259.19
2022-12-18T01:44:56.693Z,101252.47
2022-12-18T01:50:01.488Z,101256.34
2022-12-18T01:55:06.407Z,101241.44
2022-12-18T02:00:15.738Z,101262.22
2022-12-18T02:05:36.218Z,101249.91
2022-12-18T02:11:08.147Z,101251.06
2022-12-18T02:16:29.337Z,101254.91
2022-12-18T02:21:51.459Z,101247.91
2022-12-18T02:27:03.121Z,101247.06
2022-12-18T02:32:10.828Z,101272.25
2022-12-18T02:37:16.420Z,101289.88
2022-12-18T02:42:20.183Z,101259.19
2022-12-18T02:47:25.656Z,101271.44
2022-12-18T02:52:30.356Z,101284.38
2022-12-18T02:57:46.207Z,101292.28
2022-12-18T03:02:57.351Z,101294.78
2022-12-18T03:08:05.505Z,101288.41
2022-12-18T03:13:13.585Z,101303.16
2022-12-18T03:18:26.875Z,101275.69
2022-12-18T03:23:33.944Z,101307.72
2022-12-18T03:28:41.315Z,101309.59
2022-12-18T03:33:54.965Z,101317.81
2022-12-18T03:38:59.384Z,101324.38
2022-12-18T03:44:10.355Z,101331.25
2022-12-18T03:49:31.300Z,101329.06
2022-12-18T03:54:34.561Z,101309.31
2022-12-18T03:59:39.125Z,101340.31
2022-12-18T04:04:43.850Z,101323.69
2022-12-18T04:09:47.755Z,101345.50
2022-12-18T04:14:50.072Z,101345.16
2022-12-18T04:19:52.357Z,101305.16
2022-12-18T04:24:54.562Z,101342.53
2022-12-18T04:29:56.829Z,101340.22
2022-12-18T04:34:59.244Z,101356.16
2022-12-18T04:40:01.426Z,101352.78
2022-12-18T04:45:03.960Z,101362.38
2022-12-18T04:50:06.785Z,101364.56
2022-12-18T04:55:09.443Z,101369.25
2022-12-18T05:00:12.310Z,101374.28
2022-12-18T05:05:14.546Z,101400.66
2022-12-18T05:10:16.995Z,101389.22
2022-12-18T05:15:19.300Z,101383.88
2022-12-18T05:20:21.602Z,101398.31
2022-12-18T05:25:25.098Z,101418.44
2022-12-18T05:30:27.405Z,101402.50
2022-12-18T05:35:29.672Z,101429.22
2022-12-18T05:40:32.074Z,101427.34
2022-12-18T05:45:39.601Z,101427.88
2022-12-18T05:50:43.947Z,101432.38
2022-12-18T05:55:49.182Z,101439.09
2022-12-18T06:00:51.374Z,101436.59
2022-12-18T06:05:53.637Z,101456.41
2022-12-18T06:10:55.999Z,101448.50
2022-12-18T06:15:58.324Z,101455.91
2022-12-18T06:21:01.768Z,101472.53
2022-12-18T06:26:10.132Z,101465.66
2022-12-18T06:31:13.440Z,101456.25
2022-12-18T06:36:15.812Z,101473.56
2022-12-18T06:41:21.253Z,101494.38
2022-12-18T06:51:44.192Z,101492.53
2022-12-18T06:56:49.369Z,101495.38
2022-12-18T07:01:51.918Z,101498.75
2022-12-18T07:06:54.234Z,101516.88
2022-12-18T07:11:56.705Z,101531.16
2022-12-18T07:17:00.260Z,101526.13
2022-12-18T07:22:02.686Z,101546.44
2022-12-18T07:27:05.263Z,101547.47
2022-12-18T07:32:10.273Z,101519.06
2022-12-18T07:37:12.822Z,101534.19
2022-12-18T07:42:33.336Z,101540.91
2022-12-18T07:47:39.382Z,101555.38
2022-12-18T07:52:41.599Z,101535.19
2022-12-18T07:57:53.414Z,101535.69
2022-12-18T08:02:59.206Z,101526.78
2022-12-18T08:08:01.548Z,101568.13
2022-12-18T08:13:05.259Z,101550.63
2022-12-18T08:18:12.686Z,101572.31
2022-12-18T08:23:16.222Z,101573.66
2022-12-18T08:28:18.800Z,101567.97
2022-12-18T08:33:21.136Z,101557.03
2022-12-18T08:38:24.351Z,101582.59
2022-12-18T08:43:44.960Z,101596.88
2022-12-18T08:48:48.031Z,101580.72
2022-12-18T08:53:50.280Z,101568.63
2022-12-18T08:58:56.396Z,101594.19
2022-12-18T09:03:58.832Z,101594.38
2022-12-18T09:09:01.303Z,101578.59
2022-12-18T09:14:04.151Z,101578.06
2022-12-18T09:19:08.164Z,101581.94
2022-12-18T09:24:15.001Z,101555.22
2022-12-18T09:29:18.841Z,101546.94
2022-12-18T09:34:23.325Z,101583.44
2022-12-18T09:39:25.690Z,101560.91
2022-12-18T09:44:32.942Z,101568.81
2022-12-18T09:49:42.989Z,101569.84
2022-12-18T09:55:09.034Z,101568.31
2022-12-18T10:00:26.440Z,101560.06
2022-12-18T10:05:53.877Z,101563.91
2022-12-18T10:11:05.054Z,101564.06
2022-12-18T10:16:19.224Z,101533.66
2022-12-18T10:21:32.000Z,101554.81
2022-12-18T10:26:34.993Z,101554.56
2022-12-18T10:31:37.737Z,101506.38
2022-12-18T10:36:40.714Z,101518.94
2022-12-18T10:41:43.067Z,101532.84
2022-12-18T10:46:50.874Z,101553.81
2022-12-18T10:52:05.937Z,101538.34
2022-12-18T10:57:18.288Z,101525.22
2022-12-18T11:02:39.359Z,101540.28
2022-12-18T11:07:51.752Z,101545.09
2022-12-18T11:12:54.203Z,101538.03
2022-12-18T11:17:56.688Z,101543.38
2022-12-18T11:23:05.419Z,101527.22
2022-12-18T11:28:42.783Z,101551.88
2022-12-18T11:34:27.355Z,101530.00
2022-12-18T11:39:42.201Z,101533.81
2022-12-18T11:45:12.703Z,101554.22
2022-12-18T11:50:32.086Z,101528.22
2022-12-18T11:56:04.974Z,101568.53
2022-12-18T12:01:30.159Z,101573.56
2022-12-18T12:06:44.266Z,101581.94
2022-12-18T12:11:52.447Z,101569.84
2022-12-18T12:17:12.839Z,101583.16
2022-12-18T12:22:20.973Z,101570.88
2022-12-18T12:28:07.487Z,101567.53
2022-12-18T12:38:52.515Z,101566.78
2022-12-18T12:44:00.323Z,101563.91
2022-12-18T12:49:12.969Z,101572.78
2022-12-18T12:54:23.500Z,101576.25
2022-12-18T12:59:36.552Z,101572.44
2022-12-18T13:04:54.810Z,101572.59
2022-12-18T13:10:21.233Z,101579.13
2022-12-18T13:15:36.812Z,101589.56
2022-12-18T13:20:52.289Z,101586.75
2022-12-18T13:26:11.800Z,101558.72
2022-12-18T13:31:42.224Z,101582.84
2022-12-18T13:36:45.281Z,101575.69
2022-12-18T13:42:35.979Z,101552.41
2022-12-18T13:47:39.690Z,101582.53
2022-12-18T13:52:41.940Z,101593.69
2022-12-18T13:57:44.221Z,101585.13
2022-12-18T14:02:48.015Z,101590.38
2022-12-18T14:13:12.974Z,101574.69
2022-12-18T14:18:29.943Z,101575.03
2022-12-18T14:23:36.450Z,101619.44
2022-12-18T14:28:46.168Z,101578.50
2022-12-18T14:33:48.844Z,101594.94
2022-12-18T14:38:53.360Z,101623.50
2022-12-18T14:43:56.998Z,101630.09
2022-12-18T14:49:00.122Z,101612.47
2022-12-18T14:54:09.629Z,101638.38
2022-12-18T14:59:24.004Z,101639.47
2022-12-18T15:04:32.312Z,101661.81
2022-12-18T15:09:34.958Z,101636.78
2022-12-18T15:14:37.584Z,101665.41
2022-12-18T15:19:43.009Z,101641.56
2022-12-18T15:24:45.457Z,101671.81
2022-12-18T15:30:21.507Z,101671.66
2022-12-18T15:35:26.048Z,101680.59
2022-12-18T15:40:28.587Z,101668.16
2022-12-18T15:45:31.163Z,101644.97
2022-12-18T15:50:33.597Z,101678.25
2022-12-18T15:56:00.724Z,101659.09
2022-12-18T16:01:03.800Z,101686.53
2022-12-18T16:06:06.613Z,101697.91
2022-12-18T16:11:39.272Z,101727.28
2022-12-18T16:16:41.580Z,101720.94
2022-12-18T16:21:46.934Z,101700.53
2022-12-18T16:26:50.394Z,101708.44
2022-12-18T16:31:53.530Z,101746.50
2022-12-18T16:37:01.674Z,101735.63
2022-12-18T16:42:27.572Z,101744.59
2022-12-18T16:52:52.585Z,101713.59
2022-12-18T17:03:14.617Z,101747.41
2022-12-18T17:08:16.963Z,101745.34
2022-12-18T17:13:25.446Z,101764.19
2022-12-18T17:18:28.690Z,101737.13
2022-12-18T17:23:31.091Z,101773.75
2022-12-18T17:28:34.381Z,101748.00
2022-12-18T17:33:36.789Z,101774.75
2022-12-18T17:38:39.148Z,101771.72
2022-12-18T17:43:46.248Z,101779.97
2022-12-18T17:48:49.120Z,101779.28
2022-12-18T17:53:52.057Z,101763.81
2022-12-18T17:58:54.640Z,101785.88
2022-12-18T18:03:57.272Z,101781.63
2022-12-18T18:08:59.613Z,101796.47
2022-12-18T18:14:03.103Z,101793.28
2022-12-18T18:19:08.689Z,101781.66
2022-12-18T18:24:13.223Z,101796.22
2022-12-18T18:29:18.489Z,101796.56
2022-12-18T18:34:29.265Z,101780.56
2022-12-18T18:39:31.647Z,101800.91
2022-12-18T18:44:33.924Z,101753.09
2022-12-18T18:55:12.934Z,101802.25
2022-12-18T19:00:16.854Z,101835.03
2022-12-18T19:05:19.341Z,101839.34
2022-12-18T19:10:21.614Z,101843.22
2022-12-18T19:15:24.402Z,101835.56
2022-12-18T19:20:28.219Z,101862.69
2022-12-18T19:25:40.303Z,101866.72
2022-12-18T19:36:16.571Z,101883.66
2022-12-18T19:41:20.569Z,101863.16
2022-12-18T19:46:24.105Z,101879.16
2022-12-18T19:51:28.632Z,101885.31
2022-12-18T19:56:33.706Z,101886.22
2022-12-18T20:01:38.494Z,101885.06
2022-12-18T20:06:52.495Z,101894.97
2022-12-18T20:11:55.023Z,101906.41
2022-12-18T20:16:58.246Z,101909.72
2022-12-18T20:22:02.761Z,101903.19
2022-12-18T20:27:06.901Z,101886.84
2022-12-18T20:32:12.173Z,101911.09
2022-12-18T20:37:17.328Z,101893.50
2022-12-18T20:42:21.571Z,101908.06
2022-12-18T20:47:23.907Z,101890.19
2022-12-18T20:52:26.344Z,101910.59
2022-12-18T20:57:28.768Z,101891.16
2022-12-18T21:02:31.202Z,101890.13
2022-12-18T21:07:33.706Z,101908.34
2022-12-18T21:12:40.354Z,101912.50
2022-12-18T21:17:46.963Z,101917.38
2022-12-18T21:22:49.876Z,101916.22
2022-12-18T21:27:52.213Z,101942.63
2022-12-18T21:32:54.565Z,101920.88
2022-12-18T21:37:56.902Z,101943.78
2022-12-18T21:43:17.973Z,101924.78
2022-12-18T21:48:20.192Z,101933.88
2022-12-18T21:53:22.441Z,101924.91
2022-12-18T21:58:24.856Z,101933.44
2022-12-18T22:03:27.301Z,101950.00
2022-12-18T22:08:29.712Z,101927.25
2022-12-18T22:13:32.002Z,101951.16
2022-12-18T22:18:34.307Z,101949.53
2022-12-18T22:23:36.642Z,101947.88
2022-12-18T22:28:57.984Z,101952.22
2022-12-18T22:34:00.726Z,101950.00
2022-12-18T22:39:03.375Z,101952.38
2022-12-18T22:44:05.732Z,101965.38
2022-12-18T22:49:15.123Z,101949.38
2022-12-18T22:54:17.519Z,101936.72
2022-12-18T23:04:42.235Z,101968.88
2022-12-18T23:09:45.589Z,101970.56
2022-12-18T23:14:50.132Z,101951.00
2022-12-18T23:19:52.447Z,101994.28
2022-12-18T23:24:54.915Z,101976.88
2022-12-18T23:29:57.223Z,101969.97
2022-12-18T23:35:01.043Z,102004.03
2022-12-18T23:40:04.079Z,101988.19
2022-12-18T23:45:17.559Z,102007.47
2022-12-18T23:50:23.764Z,101969.31
